createdAt,value
2023-04-15T00:01:19.962Z,15.97
2023-04-15T00:03:47.413Z,16.38
2023-04-15T00:06:14.472Z,15.79
2023-04-15T00:08:41.807Z,15.87
2023-04-15T00:11:08.267Z,15.36
2023-04-15T00:13:34.742Z,15.61
2023-04-15T00:16:02.473Z,15.54
2023-04-15T00:18:29.698Z,15.53
2023-04-15T00:20:56.347Z,15.66
2023-04-15T00:23:22.848Z,15.60
2023-04-15T00:25:49.280Z,15.56
2023-04-15T00:28:15.769Z,15.14
2023-04-15T00:30:42.287Z,15.29
2023-04-15T00:33:08.716Z,15.67
2023-04-15T00:35:36.690Z,15.41
2023-04-15T00:38:04.739Z,15.46
2023-04-15T00:40:31.198Z,15.97
2023-04-15T00:42:57.627Z,15.64
2023-04-15T00:45:24.144Z,15.03
2023-04-15T00:47:51.273Z,15.61
2023-04-15T00:50:17.684Z,15.67
2023-04-15T00:52:44.186Z,15.30
2023-04-15T00:55:11.261Z,15.14
2023-04-15T00:57:39.243Z,15.22
2023-04-15T01:00:07.981Z,15.09
2023-04-15T01:02:35.541Z,15.32
2023-04-15T01:05:02.664Z,15.35
2023-04-15T01:07:29.192Z,15.58
2023-04-15T01:09:55.676Z,15.03
2023-04-15T01:12:22.104Z,15.23
2023-04-15T01:14:48.501Z,15.38
2023-04-15T01:17:14.894Z,15.47
2023-04-15T01:19:41.517Z,15.32
2023-04-15T01:22:07.986Z,15.18
2023-04-15T01:24:36.101Z,15.08
2023-04-15T01:27:03.377Z,15.28
2023-04-15T01:29:31.722Z,14.93
2023-04-15T01:31:58.459Z,15.07
2023-04-15T01:34:24.960Z,15.42
2023-04-15T01:36:52.145Z,15.61
2023-04-15T01:39:19.311Z,15.66
2023-04-15T01:41:45.841Z,14.98
2023-04-15T01:44:12.359Z,14.99
2023-04-15T01:46:39.233Z,14.86
2023-04-15T01:49:06.230Z,15.64
2023-04-15T01:51:32.911Z,15.01
2023-04-15T01:53:59.337Z,14.95
2023-04-15T01:56:26.589Z,15.33
2023-04-15T01:58:53.197Z,15.57
2023-04-15T02:01:20.008Z,15.64
2023-04-15T02:03:48.208Z,15.82
2023-04-15T02:06:14.785Z,15.84
2023-04-15T02:08:41.220Z,15.51
2023-04-15T02:11:08.394Z,14.99
2023-04-15T02:13:34.767Z,15.37
2023-04-15T02:16:01.727Z,15.42
2023-04-15T02:18:28.210Z,14.94
2023-04-15T02:20:54.669Z,15.34
2023-04-15T02:23:21.328Z,15.35
2023-04-15T02:25:53.304Z,15.30
2023-04-15T02:28:20.973Z,15.24
2023-04-15T02:30:50.982Z,15.52
2023-04-15T02:33:17.541Z,15.53
2023-04-15T02:35:45.318Z,15.32
2023-04-15T02:38:11.998Z,15.08
2023-04-15T02:40:38.376Z,15.24
2023-04-15T02:43:06.915Z,15.31
2023-04-15T02:45:33.653Z,15.44
2023-04-15T02:48:03.892Z,15.25
2023-04-15T02:50:31.587Z,14.88
2023-04-15T02:52:58.277Z,15.63
2023-04-15T02:55:24.660Z,15.59
2023-04-15T02:57:51.085Z,16.15
2023-04-15T03:00:17.553Z,15.96
2023-04-15T03:02:46.180Z,16.07
2023-04-15T03:05:14.220Z,15.88
2023-04-15T03:07:40.963Z,16.64
2023-04-15T03:10:08.197Z,15.92
2023-04-15T03:12:34.601Z,16.11
2023-04-15T03:15:02.099Z,15.70
2023-04-15T03:17:28.789Z,15.95
2023-04-15T03:19:55.662Z,15.70
2023-04-15T03:22:22.173Z,15.94
2023-04-15T03:24:48.549Z,15.80
2023-04-15T03:27:14.949Z,15.62
2023-04-15T03:29:41.368Z,15.25
2023-04-15T03:32:08.027Z,15.56
2023-04-15T03:34:34.436Z,15.31
2023-04-15T03:37:01.062Z,15.65
2023-04-15T03:39:27.456Z,15.48
2023-04-15T03:41:53.851Z,15.16
2023-04-15T03:44:20.285Z,15.15
2023-04-15T03:46:46.694Z,15.28
2023-04-15T03:49:14.075Z,15.51
2023-04-15T03:51:40.666Z,15.36
2023-04-15T03:54:07.142Z,15.10
2023-04-15T03:56:33.536Z,15.51
2023-04-15T03:59:00.220Z,15.72
2023-04-15T04:01:26.820Z,15.28
2023-04-15T04:03:53.363Z,15.51
2023-04-15T04:06:20.000Z,15.85
2023-04-15T04:08:46.384Z,15.47
2023-04-15T04:11:12.916Z,15.91
2023-04-15T04:13:40.158Z,15.04
2023-04-15T04:16:07.140Z,15.48
2023-04-15T04:18:33.849Z,15.66
2023-04-15T04:21:00.701Z,15.64
2023-04-15T04:23:27.161Z,15.72
2023-04-15T04:25:53.565Z,15.91
2023-04-15T04:28:20.024Z,16.01
2023-04-15T04:30:46.496Z,15.66
2023-04-15T04:33:13.028Z,15.47
2023-04-15T04:35:39.433Z,15.70
2023-04-15T04:38:06.311Z,16.27
2023-04-15T04:40:32.779Z,15.64
2023-04-15T04:42:59.450Z,16.10
2023-04-15T04:45:25.856Z,15.24
2023-04-15T04:47:52.344Z,15.93
2023-04-15T04:50:18.869Z,16.37
2023-04-15T04:52:45.413Z,16.47
2023-04-15T04:55:11.862Z,15.65
2023-04-15T04:57:39.571Z,15.66
2023-04-15T05:00:08.475Z,16.03
2023-04-15T05:02:35.414Z,15.87
2023-04-15T05:05:01.882Z,16.18
2023-04-15T05:07:28.561Z,16.12
2023-04-15T05:09:54.995Z,16.24
2023-04-15T05:12:21.601Z,16.09
2023-04-15T05:14:48.028Z,16.72
2023-04-15T05:17:14.489Z,16.33
2023-04-15T05:19:40.878Z,16.62
2023-04-15T05:22:07.811Z,15.87
2023-04-15T05:24:34.219Z,16.56
2023-04-15T05:27:02.236Z,16.27
2023-04-15T05:29:28.632Z,16.00
2023-04-15T05:31:55.307Z,16.30
2023-04-15T05:34:22.394Z,16.17
2023-04-15T05:36:48.823Z,15.98
2023-04-15T05:39:15.485Z,16.28
2023-04-15T05:41:41.996Z,16.11
2023-04-15T05:44:08.537Z,16.15
2023-04-15T05:46:35.076Z,15.98
2023-04-15T05:49:02.002Z,15.65
2023-04-15T05:51:28.585Z,15.84
2023-04-15T05:53:54.992Z,16.26
2023-04-15T05:56:22.208Z,16.06
2023-04-15T05:58:49.676Z,16.06
2023-04-15T06:01:17.201Z,16.65
2023-04-15T06:03:44.120Z,16.47
2023-04-15T06:06:11.063Z,15.99
2023-04-15T06:08:37.512Z,15.82
2023-04-15T06:11:03.992Z,16.16
2023-04-15T06:13:30.544Z,16.14
2023-04-15T06:15:57.073Z,16.24
2023-04-15T06:18:23.551Z,16.48
2023-04-15T06:20:50.173Z,16.47
2023-04-15T06:23:16.634Z,16.53
2023-04-15T06:25:43.482Z,16.68
2023-04-15T06:28:09.861Z,16.51
2023-04-15T06:30:37.059Z,16.26
2023-04-15T06:33:05.775Z,16.64
2023-04-15T06:35:32.339Z,16.50
2023-04-15T06:37:58.771Z,16.97
2023-04-15T06:40:25.167Z,16.74
2023-04-15T06:42:51.860Z,16.72
2023-04-15T06:45:18.440Z,16.84
2023-04-15T06:47:44.867Z,16.43
2023-04-15T06:50:11.907Z,16.40
2023-04-15T06:52:38.436Z,17.18
2023-04-15T06:55:05.446Z,17.05
2023-04-15T06:57:33.814Z,16.27
2023-04-15T07:00:01.578Z,16.28
2023-04-15T07:02:28.079Z,16.38
2023-04-15T07:04:54.581Z,16.43
2023-04-15T07:07:21.466Z,16.19
2023-04-15T07:09:47.916Z,16.21
2023-04-15T07:12:14.363Z,16.32
2023-04-15T07:14:41.300Z,16.30
2023-04-15T07:17:09.510Z,16.59
2023-04-15T07:19:36.145Z,16.81
2023-04-15T07:22:02.557Z,16.44
2023-04-15T07:24:29.077Z,16.53
2023-04-15T07:27:00.804Z,16.66
2023-04-15T07:29:27.763Z,16.52
2023-04-15T07:31:54.414Z,16.76
2023-04-15T07:34:21.095Z,16.45
2023-04-15T07:36:50.563Z,16.52
2023-04-15T07:39:17.317Z,17.17
2023-04-15T07:41:43.739Z,16.69
2023-04-15T07:44:10.534Z,16.74
2023-04-15T07:46:38.367Z,16.75
2023-04-15T07:49:05.136Z,16.85
2023-04-15T07:51:32.242Z,16.64
2023-04-15T07:53:59.230Z,17.13
2023-04-15T07:56:26.437Z,16.82
2023-04-15T07:58:53.162Z,16.90
2023-04-15T08:01:19.569Z,16.77
2023-04-15T08:03:46.587Z,17.46
2023-04-15T08:06:13.155Z,16.85
2023-04-15T08:08:39.868Z,17.09
2023-04-15T08:11:06.418Z,16.92
2023-04-15T08:13:32.892Z,16.83
2023-04-15T08:16:18.792Z,16.75
2023-04-15T08:18:48.174Z,16.90
2023-04-15T08:21:14.948Z,16.84
2023-04-15T08:23:41.488Z,17.13
2023-04-15T08:26:08.689Z,16.99
2023-04-15T08:28:35.745Z,17.12
2023-04-15T08:31:02.229Z,17.24
2023-04-15T08:33:29.001Z,16.97
2023-04-15T08:35:55.461Z,16.81
2023-04-15T08:38:21.898Z,16.85
2023-04-15T08:40:48.326Z,16.68
2023-04-15T08:43:28.564Z,16.29
2023-04-15T08:45:55.735Z,17.03
2023-04-15T08:48:24.593Z,16.42
2023-04-15T08:50:51.581Z,16.97
2023-04-15T08:53:18.136Z,16.60
2023-04-15T08:55:46.323Z,16.78
2023-04-15T08:58:14.218Z,16.92
2023-04-15T09:00:41.384Z,16.80
2023-04-15T09:03:08.911Z,16.69
2023-04-15T09:05:36.498Z,16.90
2023-04-15T09:08:03.410Z,17.36
2023-04-15T09:10:30.052Z,16.60
2023-04-15T09:12:57.212Z,17.24
2023-04-15T09:15:29.866Z,16.02
2023-04-15T09:17:56.897Z,16.43
2023-04-15T09:20:23.711Z,16.77
2023-04-15T09:22:51.085Z,17.09
2023-04-15T09:25:24.346Z,16.96
2023-04-15T09:27:56.574Z,16.30
2023-04-15T09:30:23.596Z,17.03
2023-04-15T09:32:54.514Z,16.50
2023-04-15T09:35:22.247Z,16.38
2023-04-15T09:37:49.620Z,16.69
2023-04-15T09:40:31.576Z,16.73
2023-04-15T09:42:58.031Z,16.01
2023-04-15T09:45:25.682Z,16.63
2023-04-15T09:47:53.570Z,16.99
2023-04-15T09:50:20.813Z,16.97
2023-04-15T09:52:47.436Z,16.79
2023-04-15T09:55:15.027Z,16.41
2023-04-15T09:57:41.840Z,16.68
2023-04-15T10:00:11.145Z,16.27
2023-04-15T10:02:39.373Z,16.56
2023-04-15T10:05:07.120Z,16.31
2023-04-15T10:07:33.958Z,16.77
2023-04-15T10:10:02.405Z,16.53
2023-04-15T10:12:29.427Z,16.87
2023-04-15T10:14:59.504Z,16.97
2023-04-15T10:17:30.524Z,16.44
2023-04-15T10:19:58.575Z,16.59
2023-04-15T10:22:26.409Z,16.67
2023-04-15T10:24:53.229Z,16.61
2023-04-15T10:27:20.455Z,16.99
2023-04-15T10:29:48.552Z,16.91
2023-04-15T10:32:16.054Z,17.09
2023-04-15T10:34:42.450Z,16.59
2023-04-15T10:37:10.980Z,16.94
2023-04-15T10:39:40.273Z,16.79
2023-04-15T10:42:07.530Z,17.11
2023-04-15T10:44:33.970Z,17.37
2023-04-15T10:47:00.751Z,17.31
2023-04-15T10:49:27.197Z,16.95
2023-04-15T10:51:58.048Z,16.69
2023-04-15T10:54:24.343Z,17.49
2023-04-15T10:57:08.892Z,17.19
2023-04-15T10:59:59.295Z,16.34
2023-04-15T11:02:45.272Z,16.55
2023-04-15T11:05:12.733Z,17.00
2023-04-15T11:07:42.362Z,17.00
2023-04-15T11:10:17.506Z,16.96
2023-04-15T11:13:03.744Z,16.88
2023-04-15T11:15:42.683Z,16.58
2023-04-15T11:18:16.365Z,16.80
2023-04-15T11:20:54.474Z,17.39
2023-04-15T11:23:41.185Z,17.13
2023-04-15T11:26:12.455Z,17.03
2023-04-15T11:28:42.080Z,16.62
2023-04-15T11:31:11.360Z,16.61
2023-04-15T11:33:39.117Z,16.73
2023-04-15T11:36:05.612Z,16.34
2023-04-15T11:38:32.237Z,17.22
2023-04-15T11:40:58.640Z,16.88
2023-04-15T11:43:25.363Z,16.61
2023-04-15T11:46:02.530Z,16.98
2023-04-15T11:48:35.243Z,16.99
2023-04-15T11:51:03.818Z,17.36
2023-04-15T11:53:45.883Z,17.27
2023-04-15T11:56:17.202Z,17.54
2023-04-15T11:58:44.734Z,16.89
2023-04-15T12:01:11.141Z,16.71
2023-04-15T12:03:43.233Z,17.05
2023-04-15T12:06:14.077Z,17.88
2023-04-15T12:08:55.990Z,17.48
2023-04-15T12:11:41.026Z,16.98
2023-04-15T12:14:10.652Z,17.26
2023-04-15T12:16:49.202Z,17.00
2023-04-15T12:19:36.426Z,16.65
2023-04-15T12:22:06.692Z,17.13
2023-04-15T12:24:33.545Z,16.62
2023-04-15T12:27:08.942Z,16.58
2023-04-15T12:29:36.094Z,16.97
2023-04-15T12:32:08.438Z,17.25
2023-04-15T12:34:36.320Z,17.42
2023-04-15T12:37:03.774Z,17.58
2023-04-15T12:39:40.622Z,17.21
2023-04-15T12:42:07.560Z,17.39
2023-04-15T12:44:34.089Z,17.55
2023-04-15T12:47:00.553Z,16.66
2023-04-15T12:49:27.616Z,17.19
2023-04-15T12:51:54.865Z,17.27
2023-04-15T12:54:21.605Z,16.62
2023-04-15T12:56:48.682Z,17.43
2023-04-15T12:59:15.220Z,17.74
2023-04-15T13:01:41.548Z,17.30
2023-04-15T13:04:08.528Z,17.58
2023-04-15T13:06:35.257Z,18.20
2023-04-15T13:09:02.343Z,18.22
2023-04-15T13:11:31.219Z,18.33
2023-04-15T13:13:57.684Z,18.53
2023-04-15T13:16:24.758Z,18.61
2023-04-15T13:18:51.119Z,18.30
2023-04-15T13:21:17.629Z,18.94
2023-04-15T13:23:44.070Z,19.05
2023-04-15T13:26:10.642Z,19.12
2023-04-15T13:28:37.161Z,20.03
2023-04-15T13:31:03.499Z,20.05
2023-04-15T13:33:30.161Z,20.58
2023-04-15T13:35:56.539Z,20.84
2023-04-15T13:38:23.031Z,20.66
2023-04-15T13:40:49.294Z,20.49
2023-04-15T13:43:15.601Z,20.54
2023-04-15T13:45:41.936Z,20.01
2023-04-15T13:48:08.280Z,19.85
2023-04-15T13:50:34.575Z,20.56
2023-04-15T13:53:00.942Z,20.39
2023-04-15T13:55:34.658Z,20.21
2023-04-15T13:58:00.971Z,19.67
2023-04-15T14:00:27.462Z,20.38
2023-04-15T14:02:53.954Z,20.05
2023-04-15T14:05:20.408Z,20.56
2023-04-15T14:07:46.778Z,19.38
2023-04-15T14:10:13.132Z,19.98
2023-04-15T14:12:39.450Z,20.72
2023-04-15T14:15:06.046Z,20.66
2023-04-15T14:17:33.190Z,20.48
2023-04-15T14:19:59.491Z,20.02
2023-04-15T14:22:25.923Z,20.19
2023-04-15T14:24:53.649Z,21.42
2023-04-15T14:27:19.989Z,21.17
2023-04-15T14:29:46.473Z,21.03
2023-04-15T14:32:13.261Z,20.90
2023-04-15T14:34:40.651Z,20.99
2023-04-15T14:37:07.001Z,21.56
2023-04-15T14:39:33.404Z,22.36
2023-04-15T14:41:59.863Z,21.75
2023-04-15T14:44:26.165Z,22.67
2023-04-15T14:46:52.758Z,22.47
2023-04-15T14:49:19.482Z,22.97
2023-04-15T14:51:46.361Z,21.45
2023-04-15T14:54:15.801Z,22.39
2023-04-15T14:56:42.111Z,22.99
2023-04-15T14:59:08.393Z,23.07
2023-04-15T15:01:34.817Z,22.94
2023-04-15T15:04:01.384Z,22.27
2023-04-15T15:06:27.826Z,21.83
2023-04-15T15:08:54.174Z,21.22
2023-04-15T15:11:20.929Z,22.63
2023-04-15T15:13:47.372Z,22.14
2023-04-15T15:16:14.658Z,22.47
2023-04-15T15:18:41.195Z,22.18
2023-04-15T15:21:07.485Z,22.19
2023-04-15T15:23:33.769Z,22.24
2023-04-15T15:26:00.080Z,21.92
2023-04-15T15:28:26.771Z,21.41
2023-04-15T15:30:53.221Z,21.47
2023-04-15T15:33:20.725Z,21.79
2023-04-15T15:35:47.232Z,21.34
2023-04-15T15:38:13.554Z,21.20
2023-04-15T15:40:39.858Z,21.92
2023-04-15T15:43:06.155Z,21.32
2023-04-15T15:45:32.455Z,21.20
2023-04-15T15:47:59.390Z,22.52
2023-04-15T15:50:25.772Z,22.35
2023-04-15T15:52:52.078Z,22.29
2023-04-15T15:55:18.472Z,21.74
2023-04-15T15:57:44.921Z,21.99
2023-04-15T16:00:12.756Z,22.20
2023-04-15T16:05:08.680Z,21.61
2023-04-15T16:07:35.092Z,21.20
2023-04-15T16:10:01.430Z,21.52
2023-04-15T16:12:27.880Z,21.47
2023-04-15T16:14:54.319Z,21.78
2023-04-15T16:17:20.658Z,21.37
2023-04-15T16:19:57.625Z,21.38
2023-04-15T16:22:27.444Z,22.10
2023-04-15T16:24:53.764Z,22.48
2023-04-15T16:27:20.084Z,21.69
2023-04-15T16:29:46.430Z,21.67
2023-04-15T16:32:12.795Z,21.61
2023-04-15T16:34:40.993Z,21.53
2023-04-15T16:37:07.317Z,21.67
2023-04-15T16:39:33.647Z,21.60
2023-04-15T16:42:00.174Z,21.12
2023-04-15T16:44:26.529Z,20.93
2023-04-15T16:46:52.883Z,21.55
2023-04-15T16:49:19.177Z,21.25
2023-04-15T16:51:45.478Z,20.91
2023-04-15T16:54:11.796Z,21.16
2023-04-15T16:56:38.079Z,21.38
2023-04-15T16:59:04.593Z,21.67
2023-04-15T17:01:31.150Z,21.69
2023-04-15T17:03:58.383Z,21.02
2023-04-15T17:06:24.762Z,20.98
2023-04-15T17:08:51.776Z,21.74
2023-04-15T17:11:18.287Z,21.65
2023-04-15T17:13:44.657Z,21.51
2023-04-15T17:16:11.060Z,21.85
2023-04-15T17:18:37.881Z,21.78
2023-04-15T17:21:05.076Z,21.25
2023-04-15T17:23:31.406Z,21.28
2023-04-15T17:25:57.756Z,21.31
2023-04-15T17:28:24.094Z,20.98
2023-04-15T17:30:50.685Z,20.56
2023-04-15T17:34:00.046Z,20.83
2023-04-15T17:36:03.462Z,20.52
2023-04-15T17:38:29.789Z,20.78
2023-04-15T17:40:56.242Z,20.63
2023-04-15T17:43:22.531Z,20.52
2023-04-15T17:45:48.877Z,20.70
2023-04-15T17:48:15.289Z,20.98
2023-04-15T17:50:41.619Z,20.35
2023-04-15T17:53:08.235Z,20.73
2023-04-15T17:55:34.595Z,20.68
2023-04-15T17:58:00.904Z,20.79
2023-04-15T18:00:27.373Z,20.01
2023-04-15T18:02:53.926Z,20.79
2023-04-15T18:05:21.067Z,20.87
2023-04-15T18:07:47.366Z,20.83
2023-04-15T18:10:13.669Z,20.70
2023-04-15T18:12:40.056Z,20.88
2023-04-15T18:15:06.668Z,20.39
2023-04-15T18:17:33.142Z,20.49
2023-04-15T18:19:59.502Z,21.01
2023-04-15T18:22:26.051Z,20.55
2023-04-15T18:24:52.356Z,21.16
2023-04-15T18:27:18.730Z,21.20
2023-04-15T18:29:45.106Z,20.83
2023-04-15T18:32:11.489Z,20.44
2023-04-15T18:34:38.359Z,20.58
2023-04-15T18:37:05.407Z,20.84
2023-04-15T18:39:31.702Z,21.24
2023-04-15T18:41:57.985Z,21.12
2023-04-15T18:44:24.387Z,20.97
2023-04-15T18:46:50.713Z,20.38
2023-04-15T18:49:17.045Z,20.87
2023-04-15T18:51:43.486Z,20.54
2023-04-15T18:54:09.793Z,20.52
2023-04-15T18:56:36.112Z,20.55
2023-04-15T18:59:23.089Z,20.80
2023-04-15T19:01:49.178Z,20.47
2023-04-15T19:04:15.661Z,20.57
2023-04-15T19:06:42.053Z,20.55
2023-04-15T19:09:08.435Z,20.62
2023-04-15T19:11:34.760Z,20.58
2023-04-15T19:14:01.410Z,20.51
2023-04-15T19:16:27.770Z,20.45
2023-04-15T19:18:54.139Z,20.53
2023-04-15T19:21:20.498Z,20.19
2023-04-15T19:23:48.121Z,20.34
2023-04-15T19:26:14.567Z,20.84
2023-04-15T19:28:40.891Z,20.75
2023-04-15T19:31:07.379Z,20.89
2023-04-15T19:33:33.714Z,20.50
2023-04-15T19:36:05.293Z,20.45
2023-04-15T19:38:32.076Z,19.68
2023-04-15T19:40:58.772Z,20.07
2023-04-15T19:43:25.153Z,20.14
2023-04-15T19:45:52.947Z,20.55
2023-04-15T19:48:19.452Z,20.22
2023-04-15T19:50:46.177Z,20.01
2023-04-15T19:53:12.789Z,20.00
2023-04-15T19:55:39.135Z,19.68
2023-04-15T19:58:05.672Z,19.93
2023-04-15T20:00:32.336Z,20.15
2023-04-15T20:02:58.970Z,20.22
2023-04-15T20:05:25.608Z,20.52
2023-04-15T20:07:52.935Z,20.88
2023-04-15T20:10:22.342Z,20.22
2023-04-15T20:12:52.149Z,20.49
2023-04-15T20:15:20.065Z,20.20
2023-04-15T20:17:46.471Z,20.44
2023-04-15T20:20:12.889Z,20.47
2023-04-15T20:22:39.176Z,20.41
2023-04-15T20:25:05.698Z,20.33
2023-04-15T20:27:32.029Z,20.11
2023-04-15T20:29:58.381Z,20.33
2023-04-15T20:32:24.772Z,20.24
2023-04-15T20:34:51.265Z,20.05
2023-04-15T20:37:17.829Z,20.27
2023-04-15T20:39:44.314Z,20.66
2023-04-15T20:42:10.663Z,20.51
2023-04-15T20:44:38.640Z,20.14
2023-04-15T20:47:08.584Z,20.49
2023-04-15T20:49:35.306Z,21.01
2023-04-15T20:52:01.899Z,21.44
2023-04-15T20:54:28.292Z,21.44
2023-04-15T20:56:56.301Z,20.93
2023-04-15T20:59:22.620Z,20.26
2023-04-15T21:01:49.046Z,21.03
2023-04-15T21:04:15.605Z,20.75
2023-04-15T21:06:42.120Z,21.17
2023-04-15T21:09:08.675Z,20.83
2023-04-15T21:14:07.201Z,20.06
2023-04-15T21:16:33.944Z,18.85
2023-04-15T21:19:01.090Z,20.14
2023-04-15T21:21:28.069Z,20.26
2023-04-15T21:23:55.241Z,19.72
2023-04-15T21:26:21.602Z,19.57
2023-04-15T21:28:47.897Z,20.50
2023-04-15T21:31:14.215Z,19.50
2023-04-15T21:33:40.510Z,19.87
2023-04-15T21:36:06.894Z,19.65
2023-04-15T21:38:33.495Z,19.85
2023-04-15T21:41:01.130Z,19.68
2023-04-15T21:43:27.599Z,18.98
2023-04-15T21:46:22.385Z,18.92
2023-04-15T21:48:40.392Z,18.66
2023-04-15T21:51:06.783Z,19.23
2023-04-15T21:53:33.067Z,19.05
2023-04-15T21:55:59.353Z,18.88
2023-04-15T21:58:25.827Z,19.39
2023-04-15T22:00:52.388Z,19.27
2023-04-15T22:03:18.982Z,19.38
2023-04-15T22:05:45.987Z,19.48
2023-04-15T22:08:12.328Z,19.65
2023-04-15T22:10:39.404Z,19.52
2023-04-15T22:13:08.585Z,19.27
2023-04-15T22:15:35.683Z,18.93
2023-04-15T22:18:02.092Z,18.33
2023-04-15T22:20:28.463Z,19.58
2023-04-15T22:22:54.790Z,19.55
2023-04-15T22:25:21.334Z,19.17
2023-04-15T22:27:47.601Z,18.43
2023-04-15T22:30:13.942Z,18.64
2023-04-15T22:32:40.339Z,18.76
2023-04-15T22:35:06.842Z,18.98
2023-04-15T22:37:33.148Z,18.23
2023-04-15T22:39:59.534Z,18.74
2023-04-15T22:42:25.955Z,18.85
2023-04-15T22:44:52.265Z,18.42
2023-04-15T22:47:18.868Z,18.03
2023-04-15T22:49:45.550Z,17.55
2023-04-15T22:52:17.204Z,18.73
2023-04-15T22:54:50.097Z,18.47
2023-04-15T22:57:16.405Z,18.65
2023-04-15T22:59:42.703Z,18.68
2023-04-15T23:02:09.039Z,17.83
2023-04-15T23:04:35.580Z,18.36
2023-04-15T23:07:02.006Z,17.55
2023-04-15T23:09:28.304Z,17.88
2023-04-15T23:11:56.206Z,18.11
2023-04-15T23:14:22.752Z,18.57
2023-04-15T23:16:49.332Z,17.84
2023-04-15T23:19:15.746Z,18.10
2023-04-15T23:21:42.044Z,17.78
2023-04-15T23:24:08.360Z,18.16
2023-04-15T23:26:34.679Z,18.43
2023-04-15T23:29:00.980Z,18.71
2023-04-15T23:31:27.275Z,18.92
2023-04-15T23:33:53.630Z,18.82
2023-04-15T23:36:19.940Z,18.92
2023-04-15T23:38:46.199Z,19.45
2023-04-15T23:41:12.566Z,19.09
2023-04-15T23:43:38.898Z,18.51
2023-04-15T23:46:05.275Z,18.69
2023-04-15T23:48:31.579Z,18.15
2023-04-15T23:50:57.894Z,18.39
2023-04-15T23:53:24.189Z,18.28
2023-04-15T23:55:50.530Z,18.41
2023-04-15T23:58:17.049Z,18.31
